River Hebert, Canada
Current Conditions -  °F | °C
As of 11:00 AM on Saturday 25 Oct 2014 (Local Time) from CYQM Reporting Station
Drizzle Drizzle  
Wind Chill: 41°   Ceiling: 500
Heat Index: 46°   Visibility: 1.5mi
Dew Point: 45°   Wind: 12mph
Humidity: 93%   Direction: 350°N
Pressure: 29.52"   Gusts: NA
Location:  45.68°N, 64.38°W
Report Text: CYQM 251400Z 35010KT 1 1/2SM -DZ BR OVC005 08/07 A2952 RMK SF8 SLP999
Loading
Personal Weather Stations






























Interactive Weather Map
Tropical Storm Tracking
New forecast layout! Learn more

10-Day Weather Forecast

Advertisements
Track Severe Weather on mobile